Time;durP1;ratioP1;P1;durP2;ratioP2;P2;SDS_P1;SDS_P2;PMS_P1;PMS_P2;Temp;Humidity;BMP_temperature;BMP_pressure;BME280_temperature;BME280_humidity;BME280_pressure;Samples;Min_cycle;Max_cycle;Signal;HPM_P1;HPM_P2
2023/04/23 00:01:05;;;;;;;26.10;17.42;;;14.70;71.50;;;;;;5037398;28;20026;-73
2023/04/23 00:03:33;;;;;;;28.95;17.52;;;14.70;72.10;;;;;;5037659;28;20045;-73
2023/04/23 00:06:01;;;;;;;26.90;17.30;;;14.70;72.20;;;;;;5037246;28;20029;-73
2023/04/23 00:08:29;;;;;;;26.13;19.23;;;14.60;72.00;;;;;;5037840;28;20040;-73
2023/04/23 00:10:55;;;;;;;24.00;16.55;;;14.60;72.40;;;;;;5037725;28;20049;-73
2023/04/23 00:13:21;;;;;;;26.83;18.00;;;14.50;72.10;;;;;;5036208;28;20435;-73
2023/04/23 00:15:47;;;;;;;23.08;16.05;;;14.50;72.20;;;;;;5037703;28;20465;-73
2023/04/23 00:18:15;;;;;;;24.05;16.75;;;14.50;72.00;;;;;;5037110;28;20037;-73
2023/04/23 00:20:42;;;;;;;28.45;18.33;;;14.40;72.10;;;;;;5037320;28;20112;-73
2023/04/23 00:23:08;;;;;;;26.08;17.45;;;14.40;72.40;;;;;;5036888;28;20030;-73
2023/04/23 00:25:34;;;;;;;24.65;16.35;;;14.40;72.30;;;;;;5036896;28;20033;-73
2023/04/23 00:28:00;;;;;;;26.65;17.30;;;14.40;71.90;;;;;;5036949;28;20443;-73
2023/04/23 00:30:26;;;;;;;25.83;18.00;;;14.40;71.90;;;;;;5037412;28;20052;-73
2023/04/23 00:32:52;;;;;;;24.30;16.00;;;14.40;72.10;;;;;;5036792;28;20040;-73
2023/04/23 00:35:19;;;;;;;25.63;17.63;;;14.40;71.90;;;;;;5037047;28;20069;-73
2023/04/23 00:37:45;;;;;;;22.92;16.30;;;14.40;71.70;;;;;;5036290;28;20031;-73
2023/04/23 00:40:12;;;;;;;24.83;16.83;;;14.40;71.70;;;;;;5036943;28;20026;-73
2023/04/23 00:42:39;;;;;;;25.95;17.00;;;14.40;71.90;;;;;;5036781;28;20083;-73
2023/04/23 00:45:07;;;;;;;26.75;18.58;;;14.40;72.00;;;;;;5036787;28;20179;-73
2023/04/23 00:47:35;;;;;;;29.75;20.25;;;14.40;72.40;;;;;;5036743;28;20033;-73
2023/04/23 00:50:02;;;;;;;32.00;20.75;;;14.40;72.60;;;;;;5035652;28;20331;-73
2023/04/23 00:52:28;;;;;;;28.50;19.05;;;14.30;73.10;;;;;;5036186;28;20048;-73
2023/04/23 00:54:54;;;;;;;28.95;18.85;;;14.30;73.30;;;;;;5036384;28;20013;-73
2023/04/23 00:57:21;;;;;;;27.23;18.00;;;14.20;73.00;;;;;;5036609;28;20057;-73
2023/04/23 00:59:48;;;;;;;25.60;16.42;;;14.20;72.70;;;;;;5036566;28;20084;-73
2023/04/23 01:02:14;;;;;;;28.23;18.10;;;14.20;72.60;;;;;;5036202;28;20034;-73
2023/04/23 01:04:42;;;;;;;28.25;18.83;;;14.20;72.70;;;;;;5036088;28;20386;-73
2023/04/23 01:07:11;;;;;;;27.88;18.75;;;14.10;72.80;;;;;;5036121;28;20029;-73
2023/04/23 01:09:37;;;;;;;30.17;19.40;;;14.10;72.70;;;;;;5036641;28;20041;-73
2023/04/23 01:12:05;;;;;;;35.47;20.80;;;14.10;73.40;;;;;;5036144;28;20087;-73
2023/04/23 01:14:32;;;;;;;33.20;21.15;;;14.10;73.70;;;;;;5036008;28;20049;-73
2023/04/23 01:16:58;;;;;;;29.77;18.92;;;14.00;74.00;;;;;;5036493;28;20025;-73
2023/04/23 01:19:24;;;;;;;26.88;18.42;;;13.90;73.90;;;;;;5035905;28;20024;-73
2023/04/23 01:21:51;;;;;;;26.90;18.40;;;13.90;73.70;;;;;;5036131;28;20026;-73
2023/04/23 01:24:18;;;;;;;26.63;18.23;;;13.90;73.70;;;;;;5036019;28;20052;-73
2023/04/23 01:26:44;;;;;;;26.33;16.60;;;13.90;73.40;;;;;;5036053;28;20100;-73
2023/04/23 01:29:10;;;;;;;25.02;16.65;;;13.90;73.20;;;;;;5035760;28;20017;-73
2023/04/23 01:31:36;;;;;;;25.63;17.50;;;13.90;73.40;;;;;;5035703;28;20021;-73
2023/04/23 01:34:03;;;;;;;26.23;17.02;;;13.90;73.20;;;;;;5036274;28;20025;-73
2023/04/23 01:36:30;;;;;;;24.80;16.95;;;13.90;73.50;;;;;;5035970;28;20040;-73
2023/04/23 01:38:56;;;;;;;29.52;17.73;;;13.90;73.20;;;;;;5035588;28;20107;-73
2023/04/23 01:41:22;;;;;;;22.55;15.57;;;13.90;73.20;;;;;;5035838;28;20053;-73
2023/04/23 01:43:48;;;;;;;23.90;17.25;;;13.90;73.10;;;;;;5035833;28;20104;-73
2023/04/23 01:46:15;;;;;;;24.88;16.17;;;13.90;73.10;;;;;;5035734;28;20028;-73
2023/04/23 01:48:41;;;;;;;23.38;15.68;;;13.90;73.10;;;;;;5035243;28;20080;-73
2023/04/23 01:51:08;;;;;;;23.08;16.55;;;13.90;73.00;;;;;;5034782;28;20071;-73
2023/04/23 01:53:33;;;;;;;23.50;15.82;;;13.90;73.00;;;;;;5035418;28;20423;-73
2023/04/23 01:56:00;;;;;;;22.30;15.70;;;13.90;72.90;;;;;;5035707;28;20060;-73
2023/04/23 01:58:26;;;;;;;23.17;15.70;;;13.90;72.80;;;;;;5035364;28;20032;-73
2023/04/23 02:00:52;;;;;;;24.30;15.90;;;13.90;72.80;;;;;;5035572;28;20342;-73
2023/04/23 02:03:17;;;;;;;23.77;15.95;;;13.90;73.00;;;;;;5035617;28;20072;-73
2023/04/23 02:05:44;;;;;;;23.83;15.68;;;13.90;72.90;;;;;;5035494;28;20069;-73
2023/04/23 02:08:11;;;;;;;27.05;17.23;;;13.90;73.00;;;;;;5035836;28;20084;-73
2023/04/23 02:10:37;;;;;;;27.83;18.00;;;13.90;72.90;;;;;;5035547;28;20025;-73
2023/04/23 02:13:03;;;;;;;27.98;18.05;;;13.90;73.40;;;;;;5035217;28;20030;-73
2023/04/23 02:15:29;;;;;;;28.70;18.45;;;13.90;73.70;;;;;;5035194;28;20053;-73
2023/04/23 02:17:55;;;;;;;27.42;17.83;;;13.90;74.00;;;;;;5035736;28;20060;-73
2023/04/23 02:20:21;;;;;;;30.02;18.70;;;13.90;74.10;;;;;;5035454;28;20083;-73
2023/04/23 02:22:49;;;;;;;28.60;19.45;;;13.80;74.20;;;;;;5034267;28;20485;-73
2023/04/23 02:25:16;;;;;;;28.38;19.23;;;13.80;74.30;;;;;;5035076;28;20456;-73
2023/04/23 02:27:43;;;;;;;27.73;17.85;;;13.70;74.50;;;;;;5035386;28;20053;-73
2023/04/23 02:30:10;;;;;;;27.95;18.23;;;13.70;74.10;;;;;;5034155;28;20032;-73
2023/04/23 02:32:37;;;;;;;24.42;16.00;;;13.70;74.00;;;;;;5035299;28;20065;-73
2023/04/23 02:35:05;;;;;;;23.55;14.48;;;13.70;73.90;;;;;;5035349;28;20040;-73
2023/04/23 02:37:35;;;;;;;23.08;15.55;;;13.70;73.80;;;;;;5035020;28;20124;-73
2023/04/23 02:40:04;;;;;;;28.40;17.60;;;13.70;73.60;;;;;;5034971;28;20045;-73
2023/04/23 02:42:30;;;;;;;26.48;17.05;;;13.70;74.10;;;;;;5034883;28;20037;-73
2023/04/23 02:44:56;;;;;;;24.25;16.92;;;13.70;74.20;;;;;;5035460;28;20036;-73
2023/04/23 02:47:22;;;;;;;24.55;16.30;;;13.70;74.00;;;;;;5034961;28;20023;-73
2023/04/23 02:49:48;;;;;;;24.55;16.05;;;13.70;73.80;;;;;;5035229;28;20029;-73
2023/04/23 02:52:14;;;;;;;23.52;15.45;;;13.70;73.70;;;;;;5034706;28;20041;-73
2023/04/23 02:54:40;;;;;;;23.13;15.65;;;13.70;73.60;;;;;;5034948;28;20040;-73
2023/04/23 02:57:06;;;;;;;25.15;15.88;;;13.80;73.50;;;;;;5034904;28;20025;-73
2023/04/23 02:59:32;;;;;;;28.52;16.83;;;13.70;73.50;;;;;;5034799;28;20355;-73
2023/04/23 03:01:58;;;;;;;25.10;16.75;;;13.70;73.50;;;;;;5038052;28;20052;-73
2023/04/23 03:04:24;;;;;;;22.33;15.55;;;13.70;73.50;;;;;;5038718;28;20362;-73
2023/04/23 03:06:50;;;;;;;25.10;15.75;;;13.80;73.60;;;;;;5038505;28;20118;-73
2023/04/23 03:09:16;;;;;;;23.52;15.77;;;13.80;73.40;;;;;;5038971;28;20029;-73
2023/04/23 03:11:42;;;;;;;23.80;16.48;;;13.80;73.40;;;;;;5038315;28;20022;-73
2023/04/23 03:14:08;;;;;;;24.33;16.42;;;13.80;73.30;;;;;;5038890;28;20021;-73
2023/04/23 03:16:35;;;;;;;26.08;16.83;;;13.80;73.30;;;;;;5038281;28;20026;-73
2023/04/23 03:19:01;;;;;;;22.88;15.52;;;13.80;73.30;;;;;;5038282;28;20025;-73
2023/04/23 03:21:26;;;;;;;23.95;15.82;;;13.70;73.30;;;;;;5038157;28;20100;-73
2023/04/23 03:23:52;;;;;;;23.95;15.32;;;13.70;73.20;;;;;;5038466;28;20072;-73
2023/04/23 03:26:19;;;;;;;24.60;16.05;;;13.70;73.10;;;;;;5038324;28;20025;-73
2023/04/23 03:28:45;;;;;;;22.27;15.52;;;13.70;73.00;;;;;;5038349;28;20017;-73
2023/04/23 03:31:11;;;;;;;24.45;15.95;;;13.70;73.10;;;;;;5037899;28;20023;-73
2023/04/23 03:33:36;;;;;;;24.58;14.77;;;13.70;73.10;;;;;;5037988;28;20075;-73
2023/04/23 03:36:03;;;;;;;24.92;16.55;;;13.70;73.20;;;;;;5037909;28;20026;-73
2023/04/23 03:38:29;;;;;;;24.85;15.85;;;13.60;73.30;;;;;;5037927;28;20056;-73
2023/04/23 03:40:55;;;;;;;26.83;17.63;;;13.60;73.30;;;;;;5037730;28;20462;-73
2023/04/23 03:43:21;;;;;;;29.60;18.17;;;13.60;73.90;;;;;;5037741;28;20359;-73
2023/04/23 03:45:47;;;;;;;28.67;17.35;;;13.50;73.70;;;;;;5037927;28;20316;-73
2023/04/23 03:48:12;;;;;;;24.05;15.55;;;13.50;73.70;;;;;;5037696;28;20156;-73
2023/04/23 03:50:39;;;;;;;25.30;15.80;;;13.40;73.90;;;;;;5037691;28;20451;-73
2023/04/23 03:53:06;;;;;;;27.92;17.88;;;13.40;74.00;;;;;;5037277;28;20493;-73
2023/04/23 03:55:32;;;;;;;28.00;17.50;;;13.40;74.30;;;;;;5037514;28;20083;-73
2023/04/23 03:58:02;;;;;;;26.58;17.77;;;13.40;74.40;;;;;;5037551;28;20052;-73
2023/04/23 04:00:28;;;;;;;26.88;17.55;;;13.40;74.30;;;;;;5037429;28;20459;-73
2023/04/23 04:02:54;;;;;;;30.70;19.02;;;13.40;74.80;;;;;;5037377;28;20028;-73
2023/04/23 04:05:21;;;;;;;29.30;18.05;;;13.30;75.00;;;;;;5037245;28;20034;-73
2023/04/23 04:07:47;;;;;;;26.88;17.45;;;13.30;75.30;;;;;;5037881;28;20029;-73
2023/04/23 04:10:13;;;;;;;25.60;17.08;;;13.30;75.30;;;;;;5037273;28;20030;-73
2023/04/23 04:12:40;;;;;;;26.63;17.42;;;13.20;75.30;;;;;;5036700;28;20029;-73
2023/04/23 04:15:07;;;;;;;29.83;17.15;;;13.20;75.20;;;;;;5037259;28;20017;-73
2023/04/23 04:17:33;;;;;;;24.05;16.10;;;13.20;74.90;;;;;;5037128;28;20087;-73
2023/04/23 04:19:59;;;;;;;24.63;16.60;;;13.20;74.90;;;;;;5037159;28;20079;-73
2023/04/23 04:22:25;;;;;;;23.00;15.88;;;13.20;74.70;;;;;;5037151;28;20033;-73
2023/04/23 04:24:51;;;;;;;25.02;16.23;;;13.30;74.70;;;;;;5037222;28;20029;-73
2023/04/23 04:27:17;;;;;;;27.13;17.10;;;13.30;74.80;;;;;;5037527;28;20029;-73
2023/04/23 04:29:43;;;;;;;25.83;17.63;;;13.30;75.10;;;;;;5037198;28;20021;-73
2023/04/23 04:32:10;;;;;;;22.80;15.13;;;13.40;75.10;;;;;;5036850;28;20075;-73
2023/04/23 04:34:37;;;;;;;24.25;16.55;;;13.30;74.90;;;;;;5037071;28;20025;-73
2023/04/23 04:37:03;;;;;;;26.23;16.40;;;13.40;74.70;;;;;;5036816;28;20034;-74
2023/04/23 04:39:29;;;;;;;24.55;16.00;;;13.40;74.70;;;;;;5036848;28;20025;-73
2023/04/23 04:41:56;;;;;;;25.65;16.65;;;13.40;74.70;;;;;;5036966;28;20040;-73
2023/04/23 04:44:24;;;;;;;24.75;16.17;;;13.40;74.80;;;;;;5036888;28;20087;-73
2023/04/23 04:46:50;;;;;;;25.85;15.85;;;13.50;74.70;;;;;;5036614;28;20032;-73
2023/04/23 04:49:18;;;;;;;30.55;19.25;;;13.50;74.90;;;;;;5036817;28;20033;-73
2023/04/23 04:51:44;;;;;;;28.88;17.55;;;13.50;75.40;;;;;;5036186;28;20091;-73
2023/04/23 04:54:10;;;;;;;27.38;17.73;;;13.50;75.40;;;;;;5036426;28;20025;-73
2023/04/23 04:56:36;;;;;;;29.15;18.30;;;13.50;75.50;;;;;;5036382;28;20032;-73
2023/04/23 04:59:03;;;;;;;31.98;19.98;;;13.60;75.80;;;;;;5036916;28;20036;-73
2023/04/23 05:01:29;;;;;;;26.98;17.33;;;13.60;76.00;;;;;;5036214;28;20030;-73
2023/04/23 05:03:56;;;;;;;28.45;18.35;;;13.60;75.70;;;;;;5036800;28;20076;-73
2023/04/23 05:06:22;;;;;;;27.10;17.90;;;13.60;75.70;;;;;;5036187;28;20292;-73
2023/04/23 05:08:48;;;;;;;26.95;18.30;;;13.60;75.80;;;;;;5036432;28;20033;-73
2023/04/23 05:11:16;;;;;;;31.67;18.73;;;13.60;75.70;;;;;;5036094;28;20481;-73
2023/04/23 05:13:43;;;;;;;30.17;19.38;;;13.70;75.60;;;;;;5036627;28;20029;-73
2023/04/23 05:16:10;;;;;;;31.48;18.75;;;13.70;76.00;;;;;;5036057;28;20037;-73
2023/04/23 05:18:37;;;;;;;30.25;19.50;;;13.80;75.70;;;;;;5035945;28;20331;-73
2023/04/23 05:21:04;;;;;;;33.70;21.00;;;13.90;75.80;;;;;;5034884;28;20026;-73
2023/04/23 05:23:30;;;;;;;31.67;20.92;;;13.90;76.40;;;;;;5035885;28;20025;-73
2023/04/23 05:25:57;;;;;;;31.58;20.77;;;13.90;76.50;;;;;;5036343;28;20036;-73
2023/04/23 05:28:23;;;;;;;31.17;20.15;;;14.00;76.50;;;;;;5036098;28;20057;-73
2023/04/23 05:30:50;;;;;;;37.17;21.83;;;14.00;76.70;;;;;;5036046;28;20027;-74
2023/04/23 05:33:16;;;;;;;32.67;20.95;;;14.00;76.70;;;;;;5035925;28;20026;-73
2023/04/23 05:35:42;;;;;;;35.15;22.17;;;14.10;76.80;;;;;;5035111;28;20017;-73
2023/04/23 05:38:09;;;;;;;36.13;22.60;;;14.10;76.70;;;;;;5035682;28;20424;-73
2023/04/23 05:40:35;;;;;;;40.08;23.85;;;14.10;76.90;;;;;;5035650;28;20176;-73
2023/04/23 05:43:01;;;;;;;34.38;22.02;;;14.20;77.00;;;;;;5035511;28;20112;-73
2023/04/23 05:45:27;;;;;;;38.40;24.05;;;14.20;76.90;;;;;;5035516;28;20034;-73
2023/04/23 05:47:54;;;;;;;41.67;24.48;;;14.30;77.00;;;;;;5035524;28;20423;-73
2023/04/23 05:50:20;;;;;;;36.38;22.65;;;14.30;77.30;;;;;;5035436;28;20108;-73
2023/04/23 05:52:46;;;;;;;34.85;22.35;;;14.30;76.80;;;;;;5035207;28;20387;-73
2023/04/23 05:55:14;;;;;;;38.88;23.10;;;14.40;76.90;;;;;;5035454;28;20076;-73
2023/04/23 05:57:40;;;;;;;34.47;22.55;;;14.40;76.80;;;;;;5035396;28;20474;-73
2023/04/23 06:00:10;;;;;;;33.88;22.52;;;14.40;77.00;;;;;;5035388;28;20041;-73
2023/04/23 06:02:37;;;;;;;32.13;20.17;;;14.50;77.00;;;;;;5035554;28;20494;-73
2023/04/23 06:05:04;;;;;;;39.25;24.63;;;14.50;76.70;;;;;;5035517;28;20029;-73
2023/04/23 06:07:31;;;;;;;32.30;20.73;;;14.60;76.70;;;;;;5035282;28;20029;-73
2023/04/23 06:09:57;;;;;;;34.35;21.90;;;14.60;76.60;;;;;;5035306;28;20064;-73
2023/04/23 06:12:23;;;;;;;35.88;23.00;;;14.60;76.60;;;;;;5035418;28;20033;-73
2023/04/23 06:14:50;;;;;;;35.90;22.92;;;14.70;76.80;;;;;;5035308;28;20120;-73
2023/04/23 06:17:16;;;;;;;36.53;21.38;;;14.80;76.70;;;;;;5035212;28;20041;-73
2023/04/23 06:19:42;;;;;;;39.80;23.95;;;14.80;76.60;;;;;;5035203;28;20018;-73
2023/04/23 06:22:08;;;;;;;41.40;24.92;;;14.90;76.30;;;;;;5035175;28;20029;-73
2023/04/23 06:24:35;;;;;;;38.67;23.45;;;15.00;76.60;;;;;;5035102;28;20028;-74
2023/04/23 06:27:01;;;;;;;38.72;23.65;;;15.20;76.50;;;;;;5034591;28;20032;-73
2023/04/23 06:29:28;;;;;;;39.60;23.23;;;15.60;75.00;;;;;;5035349;28;20435;-74
2023/04/23 06:31:55;;;;;;;36.25;23.35;;;15.90;74.60;;;;;;5035274;28;20025;-74
2023/04/23 06:34:22;;;;;;;38.45;21.10;;;16.30;73.80;;;;;;5035315;28;20036;-74
2023/04/23 06:36:50;;;;;;;37.83;22.67;;;16.60;72.30;;;;;;5037719;28;20033;-73
2023/04/23 06:39:16;;;;;;;33.97;22.40;;;16.90;71.90;;;;;;5038898;28;20044;-73
2023/04/23 06:41:42;;;;;;;35.03;21.92;;;17.20;70.50;;;;;;5039101;28;20025;-73
2023/04/23 06:44:08;;;;;;;35.15;22.40;;;17.40;70.00;;;;;;5038901;28;20040;-73
2023/04/23 06:46:34;;;;;;;30.42;20.60;;;17.60;68.50;;;;;;5039044;28;20033;-73
2023/04/23 06:49:00;;;;;;;31.63;20.33;;;17.70;67.80;;;;;;5038854;28;20048;-73
2023/04/23 06:51:30;;;;;;;33.47;21.05;;;17.90;67.00;;;;;;5038423;28;20482;-73
2023/04/23 06:53:57;;;;;;;32.88;20.38;;;17.90;66.30;;;;;;5038983;28;20112;-73
2023/04/23 06:56:24;;;;;;;33.58;20.83;;;17.90;66.40;;;;;;5038613;28;20112;-73
2023/04/23 06:58:50;;;;;;;30.23;19.00;;;17.90;65.80;;;;;;5038643;28;20032;-73
2023/04/23 07:01:16;;;;;;;31.30;20.48;;;17.90;66.10;;;;;;5039083;28;20026;-73
2023/04/23 07:03:45;;;;;;;28.90;18.10;;;17.80;65.40;;;;;;5038526;28;20108;-73
2023/04/23 07:06:11;;;;;;;29.58;18.92;;;17.80;65.90;;;;;;5038680;28;20032;-73
2023/04/23 07:08:38;;;;;;;29.95;19.80;;;17.80;66.10;;;;;;5039034;28;20025;-73
2023/04/23 07:11:04;;;;;;;32.60;20.17;;;17.90;66.60;;;;;;5037368;28;20025;-73
2023/04/23 07:13:30;;;;;;;29.83;18.30;;;18.00;66.30;;;;;;5038616;28;20029;-73
2023/04/23 07:15:57;;;;;;;29.70;18.30;;;18.10;65.80;;;;;;5038878;28;20029;-74
2023/04/23 07:18:22;;;;;;;30.10;18.80;;;18.30;65.50;;;;;;5038195;28;20053;-74
2023/04/23 07:20:48;;;;;;;27.50;18.02;;;18.40;65.20;;;;;;5038445;28;20390;-74
2023/04/23 07:23:14;;;;;;;27.70;18.70;;;18.60;65.10;;;;;;5038107;28;20029;-74
2023/04/23 07:25:40;;;;;;;26.80;17.48;;;18.70;65.00;;;;;;5038387;28;20071;-73
2023/04/23 07:28:06;;;;;;;27.55;17.75;;;18.90;63.00;;;;;;5038055;28;20442;-73
2023/04/23 07:30:32;;;;;;;24.85;15.98;;;18.90;62.50;;;;;;5038091;28;20033;-73
2023/04/23 07:32:58;;;;;;;24.40;16.30;;;18.90;61.40;;;;;;5038266;28;20463;-73
2023/04/23 07:35:25;;;;;;;22.77;15.80;;;18.90;62.40;;;;;;5038277;28;20041;-73
2023/04/23 07:37:54;;;;;;;23.88;16.35;;;19.00;61.80;;;;;;5037918;28;20030;-73
2023/04/23 07:40:24;;;;;;;20.55;14.35;;;19.10;62.30;;;;;;5037860;28;20104;-73
2023/04/23 07:42:51;;;;;;;23.80;15.77;;;19.20;62.00;;;;;;5037800;28;20354;-73
2023/04/23 07:45:18;;;;;;;27.40;18.20;;;19.20;60.80;;;;;;5037732;28;20036;-73
2023/04/23 07:47:45;;;;;;;24.83;17.02;;;19.30;60.40;;;;;;5036594;28;20041;-73
2023/04/23 07:50:13;;;;;;;23.73;15.43;;;19.20;60.80;;;;;;5037643;28;20036;-73
2023/04/23 07:52:39;;;;;;;23.63;15.32;;;19.20;61.10;;;;;;5037310;28;20363;-73
2023/04/23 07:55:05;;;;;;;23.77;16.08;;;19.10;61.10;;;;;;5037620;28;20079;-73
2023/04/23 07:57:31;;;;;;;22.90;15.20;;;19.10;61.00;;;;;;5037836;28;20141;-73
2023/04/23 07:59:57;;;;;;;22.27;15.25;;;19.00;61.10;;;;;;5037852;28;20431;-73
2023/04/23 08:02:25;;;;;;;20.88;14.38;;;19.00;61.50;;;;;;5037437;28;20037;-73
2023/04/23 08:04:52;;;;;;;27.38;17.58;;;19.00;61.90;;;;;;5037305;28;20029;-73
2023/04/23 08:07:18;;;;;;;21.40;14.95;;;19.00;61.60;;;;;;5037608;28;20056;-73
2023/04/23 08:09:44;;;;;;;24.10;16.35;;;19.00;62.10;;;;;;5037337;28;20413;-73
2023/04/23 08:12:10;;;;;;;24.88;15.65;;;18.90;61.80;;;;;;5037401;28;20104;-73
2023/04/23 08:14:36;;;;;;;23.08;15.77;;;18.90;61.60;;;;;;5037481;28;20339;-73
2023/04/23 08:17:02;;;;;;;25.13;16.05;;;18.90;62.00;;;;;;5037492;28;20021;-73
2023/04/23 08:19:32;;;;;;;22.95;15.98;;;18.90;62.10;;;;;;5037192;28;20028;-73
2023/04/23 08:21:58;;;;;;;22.95;16.13;;;18.90;61.80;;;;;;5037034;28;20026;-73
2023/04/23 08:24:24;;;;;;;25.48;17.20;;;18.90;62.30;;;;;;5037097;28;20029;-73
2023/04/23 08:26:51;;;;;;;24.35;16.35;;;19.00;62.40;;;;;;5036928;28;20040;-73
2023/04/23 08:29:16;;;;;;;27.13;18.25;;;19.00;62.20;;;;;;5037510;28;20105;-73
2023/04/23 08:31:43;;;;;;;22.38;15.77;;;19.00;61.60;;;;;;5036918;28;20405;-73
2023/04/23 08:34:09;;;;;;;21.50;14.50;;;19.10;62.30;;;;;;5037143;28;20025;-73
2023/04/23 08:36:35;;;;;;;26.13;17.40;;;19.10;62.10;;;;;;5036843;28;20466;-73
2023/04/23 08:39:02;;;;;;;23.48;16.30;;;19.10;61.40;;;;;;5036808;28;20029;-73
2023/04/23 08:41:39;;;;;;;21.13;15.70;;;19.10;61.80;;;;;;5036900;28;20040;-73
2023/04/23 08:44:17;;;;;;;25.35;17.75;;;19.20;61.80;;;;;;5036988;28;20029;-73
2023/04/23 08:46:44;;;;;;;21.55;14.82;;;19.30;61.70;;;;;;5036926;28;20033;-73
2023/04/23 08:49:15;;;;;;;20.35;14.27;;;19.40;61.70;;;;;;5037140;28;20021;-73
2023/04/23 08:51:51;;;;;;;26.20;15.77;;;19.40;61.60;;;;;;5035606;28;20156;-73
2023/04/23 08:54:27;;;;;;;23.73;15.38;;;19.60;61.10;;;;;;5037036;28;20045;-73
2023/04/23 08:56:57;;;;;;;21.40;14.35;;;19.70;60.80;;;;;;5036397;28;20033;-73
2023/04/23 08:59:29;;;;;;;21.40;15.23;;;19.70;60.70;;;;;;5036347;28;20105;-73
2023/04/23 09:01:56;;;;;;;20.85;13.82;;;19.80;61.50;;;;;;5036559;28;20036;-73
2023/04/23 09:04:24;;;;;;;22.77;13.52;;;19.90;61.10;;;;;;5036315;28;20441;-73
2023/04/23 09:06:51;;;;;;;18.67;14.05;;;20.00;61.20;;;;;;5036431;28;20069;-73
2023/04/23 09:09:22;;;;;;;20.55;15.02;;;20.10;59.00;;;;;;5035632;28;20014;-73
2023/04/23 09:11:48;;;;;;;21.38;13.95;;;20.20;58.00;;;;;;5036381;28;20030;-73
2023/04/23 09:14:16;;;;;;;24.10;15.90;;;20.20;58.20;;;;;;5036133;28;20364;-73
2023/04/23 09:16:43;;;;;;;21.80;15.10;;;20.20;59.10;;;;;;5036036;28;20080;-73
2023/04/23 09:19:10;;;;;;;23.17;15.68;;;20.30;59.70;;;;;;5036336;28;20063;-73
2023/04/23 09:21:39;;;;;;;20.60;13.93;;;20.40;59.70;;;;;;5035928;28;20099;-73
2023/04/23 09:24:10;;;;;;;22.05;15.30;;;20.40;58.90;;;;;;5035884;28;20041;-73
2023/04/23 09:26:47;;;;;;;20.10;13.73;;;20.50;57.70;;;;;;5036591;28;20029;-73
2023/04/23 09:29:31;;;;;;;20.08;14.55;;;20.50;57.60;;;;;;5036442;28;20024;-73
2023/04/23 09:32:07;;;;;;;15.88;12.18;;;20.60;57.10;;;;;;5036312;28;20030;-73
2023/04/23 09:34:38;;;;;;;15.70;11.07;;;20.70;57.10;;;;;;5036353;28;20018;-73
2023/04/23 09:37:06;;;;;;;19.02;13.93;;;20.80;56.80;;;;;;5036002;28;20025;-73
2023/04/23 09:39:34;;;;;;;17.33;11.98;;;20.80;56.80;;;;;;5035698;28;20025;-73
2023/04/23 09:42:04;;;;;;;17.55;12.68;;;20.80;56.50;;;;;;5035552;28;20481;-73
2023/04/23 09:44:32;;;;;;;19.90;14.55;;;20.80;56.70;;;;;;5035925;28;20358;-73
2023/04/23 09:47:08;;;;;;;21.63;15.07;;;20.80;56.80;;;;;;5035732;28;20033;-73
2023/04/23 09:49:47;;;;;;;20.63;13.93;;;20.80;55.20;;;;;;5036305;28;20048;-73
2023/04/23 09:52:13;;;;;;;17.58;13.00;;;20.70;54.40;;;;;;5033966;28;20575;-73
2023/04/23 09:54:39;;;;;;;17.38;11.82;;;20.60;53.80;;;;;;5029254;28;20070;-74
2023/04/23 09:57:07;;;;;;;20.67;13.32;;;20.60;55.50;;;;;;5035734;28;20446;-73
2023/04/23 09:59:37;;;;;;;18.33;13.23;;;20.70;55.80;;;;;;5035175;28;20044;-73
2023/04/23 10:02:06;;;;;;;17.48;12.25;;;20.70;56.60;;;;;;5035338;28;20028;-73
2023/04/23 10:04:33;;;;;;;17.83;12.18;;;20.70;55.70;;;;;;5035334;28;20036;-73
2023/04/23 10:07:07;;;;;;;16.48;12.35;;;20.70;56.70;;;;;;5035484;28;20056;-73
2023/04/23 10:09:33;;;;;;;18.77;12.80;;;20.70;56.60;;;;;;5035269;28;20026;-74
2023/04/23 10:12:01;;;;;;;16.23;11.50;;;20.60;56.10;;;;;;5034545;28;20034;-73
2023/04/23 10:14:28;;;;;;;18.52;12.98;;;20.70;57.10;;;;;;5030103;28;20022;-74
2023/04/23 10:16:59;;;;;;;18.70;13.20;;;20.70;56.80;;;;;;5015493;28;20061;-72
2023/04/23 10:19:28;;;;;;;20.77;14.68;;;20.60;57.80;;;;;;5015436;28;20026;-74
2023/04/23 10:21:59;;;;;;;16.77;11.88;;;20.60;59.30;;;;;;5015512;28;20041;-73
2023/04/23 10:24:29;;;;;;;19.20;12.20;;;20.60;58.60;;;;;;5015438;28;20029;-75
2023/04/23 10:27:01;;;;;;;16.73;11.23;;;20.70;58.50;;;;;;5015184;28;20049;-74
2023/04/23 10:29:34;;;;;;;17.85;11.57;;;20.80;58.80;;;;;;5014344;28;20022;-73
2023/04/23 10:32:02;;;;;;;17.45;11.57;;;20.90;57.80;;;;;;5015544;28;20030;-74
2023/04/23 10:34:32;;;;;;;13.55;9.35;;;20.90;55.30;;;;;;5015337;28;20475;-74
2023/04/23 10:37:00;;;;;;;15.10;8.55;;;21.00;56.80;;;;;;5015866;28;20076;-74
2023/04/23 10:39:34;;;;;;;15.85;9.32;;;21.10;55.70;;;;;;5015729;28;20478;-74
2023/04/23 10:42:02;;;;;;;14.63;9.80;;;21.20;51.40;;;;;;5015138;28;20077;-74
2023/04/23 10:44:38;;;;;;;13.55;8.85;;;21.20;53.80;;;;;;5015790;28;20097;-74
2023/04/23 10:47:05;;;;;;;12.23;8.73;;;21.30;54.70;;;;;;5015171;28;20112;-74
2023/04/23 10:49:33;;;;;;;15.70;10.45;;;21.40;54.40;;;;;;5015471;28;20022;-74
2023/04/23 10:52:15;;;;;;;15.05;10.40;;;21.50;54.70;;;;;;5015180;28;20096;-74
2023/04/23 10:54:42;;;;;;;13.25;8.68;;;21.50;54.70;;;;;;5014415;28;20447;-74
2023/04/23 10:57:10;;;;;;;14.48;10.00;;;21.70;55.40;;;;;;5015622;28;20435;-74
2023/04/23 11:00:00;;;;;;;15.35;10.75;;;21.70;55.20;;;;;;5015366;28;20014;-74
2023/04/23 11:02:41;;;;;;;15.13;10.32;;;21.80;55.20;;;;;;5014672;28;20026;-74
2023/04/23 11:05:08;;;;;;;12.32;8.80;;;21.90;54.30;;;;;;5014797;28;20045;-74
2023/04/23 11:07:34;;;;;;;13.52;8.90;;;21.90;53.50;;;;;;5015293;28;20049;-74
2023/04/23 11:10:11;;;;;;;11.77;8.38;;;21.90;53.50;;;;;;5015513;28;20065;-74
2023/04/23 11:12:38;;;;;;;12.00;8.75;;;22.00;53.20;;;;;;5015223;28;20141;-74
2023/04/23 11:15:17;;;;;;;12.85;8.98;;;22.00;51.00;;;;;;5014714;28;20033;-70
2023/04/23 11:17:43;;;;;;;11.15;7.88;;;22.00;52.50;;;;;;5015264;28;20108;-70
2023/04/23 11:20:22;;;;;;;9.57;6.65;;;22.00;51.90;;;;;;5015462;28;20418;-71
2023/04/23 11:22:50;;;;;;;10.30;7.38;;;22.10;51.60;;;;;;5017265;28;20048;-71
2023/04/23 11:25:20;;;;;;;11.10;6.85;;;22.20;51.50;;;;;;5018272;28;20026;-71
2023/04/23 11:27:48;;;;;;;10.15;6.53;;;22.20;52.40;;;;;;5017359;28;20033;-71
2023/04/23 11:30:17;;;;;;;8.90;6.13;;;22.20;52.50;;;;;;5018274;28;20030;-71
2023/04/23 11:32:50;;;;;;;10.25;7.43;;;22.20;49.90;;;;;;5018725;28;20049;-71
2023/04/23 11:35:18;;;;;;;8.45;6.38;;;22.30;49.90;;;;;;5018829;28;20084;-71
2023/04/23 11:37:45;;;;;;;12.52;8.65;;;22.30;51.10;;;;;;5018482;28;20084;-71
2023/04/23 11:40:16;;;;;;;10.40;7.45;;;22.40;50.80;;;;;;5018379;28;20034;-71
2023/04/23 11:42:46;;;;;;;12.23;7.72;;;22.40;50.60;;;;;;5018085;28;20418;-71
2023/04/23 11:45:16;;;;;;;10.52;6.65;;;22.40;50.70;;;;;;5018514;28;20030;-71
2023/04/23 11:47:44;;;;;;;12.00;7.78;;;22.40;51.10;;;;;;5018692;28;20032;-71
2023/04/23 11:50:10;;;;;;;10.95;7.07;;;22.40;49.80;;;;;;5017923;28;20407;-70
2023/04/23 11:52:36;;;;;;;8.88;6.32;;;22.40;50.90;;;;;;5017655;28;20037;-71
2023/04/23 11:55:05;;;;;;;8.95;6.30;;;22.40;50.20;;;;;;5018163;28;20030;-71
2023/04/23 11:57:36;;;;;;;9.00;5.88;;;22.40;50.80;;;;;;5016994;28;20018;-71
2023/04/23 12:00:19;;;;;;;7.93;5.72;;;22.40;49.40;;;;;;5018082;28;20045;-71
2023/04/23 12:02:53;;;;;;;8.50;5.88;;;22.40;49.00;;;;;;5017137;28;20022;-70
2023/04/23 12:05:26;;;;;;;7.63;4.97;;;22.40;48.30;;;;;;5017534;28;20037;-70
2023/04/23 12:07:52;;;;;;;6.63;5.07;;;22.30;48.40;;;;;;5017991;28;20119;-70
2023/04/23 12:10:20;;;;;;;7.05;4.40;;;22.30;47.80;;;;;;5018143;28;20459;-70
2023/04/23 12:12:52;;;;;;;6.60;4.25;;;22.30;48.60;;;;;;5017513;28;20056;-70
2023/04/23 12:15:18;;;;;;;4.72;3.85;;;22.40;47.50;;;;;;5017918;28;20029;-70
2023/04/23 12:17:50;;;;;;;5.35;3.67;;;22.40;47.20;;;;;;5017713;28;20029;-70
2023/04/23 12:20:20;;;;;;;6.03;4.28;;;22.40;46.60;;;;;;5017615;28;20033;-70
2023/04/23 12:22:47;;;;;;;4.28;3.55;;;22.40;47.10;;;;;;5017471;28;20057;-70
2023/04/23 12:25:13;;;;;;;4.53;3.33;;;22.40;45.30;;;;;;5017716;28;20025;-70
2023/04/23 12:27:41;;;;;;;6.47;3.80;;;22.40;46.60;;;;;;5017311;28;20502;-71
2023/04/23 12:30:08;;;;;;;3.83;3.42;;;22.40;44.20;;;;;;5017229;28;20064;-71